Time;durP1;ratioP1;P1;durP2;ratioP2;P2;SDS_P1;SDS_P2;PMS_P1;PMS_P2;Temp;Humidity;BMP_temperature;BMP_pressure;BME280_temperature;BME280_humidity;BME280_pressure;Samples;Min_cycle;Max_cycle;Signal;HPM_P1;HPM_P2
2024/04/15 00:04:48;;;;;;;;;;;;;;;19.51;47.67;99664.97;11099692;26;1841;-67
2024/04/15 00:09:44;;;;;;;;;;;;;;;19.52;47.73;99657.88;11099966;26;853;-67
2024/04/15 00:14:39;;;;;;;;;;;;;;;19.48;47.75;99652.78;11100037;26;902;-67
2024/04/15 00:19:35;;;;;;;;;;;;;;;19.47;47.79;99629.94;11099825;26;900;-67
2024/04/15 00:24:31;;;;;;;;;;;;;;;19.46;47.76;99627.34;11098914;26;1852;-67
2024/04/15 00:29:27;;;;;;;;;;;;;;;19.45;47.75;99626.50;11098772;26;880;-67
2024/04/15 00:34:23;;;;;;;;;;;;;;;19.43;47.78;99611.66;11103774;26;903;-67
2024/04/15 00:39:19;;;;;;;;;;;;;;;19.42;47.75;99594.09;11105729;26;1069;-67
2024/04/15 00:44:15;;;;;;;;;;;;;;;19.41;47.69;99576.50;11106048;26;1833;-68
2024/04/15 00:49:11;;;;;;;;;;;;;;;19.40;47.62;99570.38;11105372;26;887;-67
2024/04/15 00:54:06;;;;;;;;;;;;;;;19.38;47.88;99556.38;11106601;26;939;-67
2024/04/15 00:59:02;;;;;;;;;;;;;;;19.38;47.71;99563.47;11105437;26;1034;-67
2024/04/15 01:03:58;;;;;;;;;;;;;;;19.36;47.72;99558.28;11105667;26;1852;-68
2024/04/15 01:08:54;;;;;;;;;;;;;;;19.35;47.63;99553.91;11106194;26;836;-67
2024/04/15 01:13:50;;;;;;;;;;;;;;;19.33;47.78;99558.41;11105188;26;876;-67
2024/04/15 01:18:46;;;;;;;;;;;;;;;19.33;47.80;99544.34;11105839;26;852;-67
2024/04/15 01:23:42;;;;;;;;;;;;;;;19.32;47.73;99540.00;11105611;26;1858;-67
2024/04/15 01:28:37;;;;;;;;;;;;;;;19.30;47.79;99521.59;11105543;26;887;-67
2024/04/15 01:33:33;;;;;;;;;;;;;;;19.29;47.81;99506.66;11104789;26;1021;-67
2024/04/15 01:38:29;;;;;;;;;;;;;;;19.27;47.60;99490.03;11104685;26;863;-68
2024/04/15 01:43:25;;;;;;;;;;;;;;;19.26;47.90;99498.91;11104487;26;1825;-67
2024/04/15 01:48:21;;;;;;;;;;;;;;;19.25;47.89;99489.25;11164407;26;910;-67
2024/04/15 01:53:17;;;;;;;;;;;;;;;19.24;47.88;99487.56;11104275;26;894;-68
2024/04/15 01:58:13;;;;;;;;;;;;;;;19.22;47.78;99477.06;11104066;26;1176;-67
2024/04/15 02:03:08;;;;;;;;;;;;;;;19.21;48.02;99458.66;11103145;26;1837;-67
2024/04/15 02:08:04;;;;;;;;;;;;;;;19.20;47.76;99443.72;11103787;26;1020;-68
2024/04/15 02:13:00;;;;;;;;;;;;;;;19.19;47.99;99439.41;11102906;26;1073;-67
2024/04/15 02:17:56;;;;;;;;;;;;;;;19.18;47.93;99438.56;11102857;26;837;-67
2024/04/15 02:22:52;;;;;;;;;;;;;;;19.17;47.84;99425.41;11103342;26;1837;-67
2024/04/15 02:27:48;;;;;;;;;;;;;;;19.15;47.83;99414.94;11102567;26;849;-67
2024/04/15 02:32:44;;;;;;;;;;;;;;;19.14;47.73;99413.22;11102451;26;932;-67
2024/04/15 02:37:40;;;;;;;;;;;;;;;19.13;48.03;99411.53;11102981;26;862;-67
2024/04/15 02:42:35;;;;;;;;;;;;;;;19.12;47.94;99404.50;11102223;26;1832;-67
2024/04/15 02:47:31;;;;;;;;;;;;;;;19.11;48.04;99404.63;11102752;26;909;-67
2024/04/15 02:52:27;;;;;;;;;;;;;;;19.10;47.82;99400.25;11101886;26;869;-67
2024/04/15 02:57:23;;;;;;;;;;;;;;;19.09;47.86;99385.34;11100941;26;876;-67
2024/04/15 03:02:19;;;;;;;;;;;;;;;19.08;47.95;99384.50;11102399;26;1829;-67
2024/04/15 03:07:15;;;;;;;;;;;;;;;19.06;48.03;99391.66;11102094;26;975;-67
2024/04/15 03:12:12;;;;;;;;;;;;;;;19.05;47.74;99384.69;11102286;26;821;-67
2024/04/15 03:17:08;;;;;;;;;;;;;;;19.03;48.17;99374.19;11101920;26;889;-67
2024/04/15 03:22:04;;;;;;;;;;;;;;;19.03;47.96;99365.41;11101585;26;1825;-67
2024/04/15 03:27:00;;;;;;;;;;;;;;;19.01;47.97;99376.03;11102210;26;852;-67
2024/04/15 03:31:56;;;;;;;;;;;;;;;19.00;47.82;99363.78;11102038;26;903;-67
2024/04/15 03:36:51;;;;;;;;;;;;;;;18.99;48.05;99363.84;11101311;26;922;-67
2024/04/15 03:41:47;;;;;;;;;;;;;;;18.99;48.17;99355.94;11100954;26;1856;-67
2024/04/15 03:46:43;;;;;;;;;;;;;;;18.97;48.06;99349.91;11100943;26;887;-67
2024/04/15 03:51:39;;;;;;;;;;;;;;;18.96;48.13;99354.31;11100825;26;817;-67
2024/04/15 03:56:35;;;;;;;;;;;;;;;18.94;48.06;99343.00;11101159;26;988;-68
2024/04/15 04:01:31;;;;;;;;;;;;;;;18.93;48.12;99343.91;11100082;26;1828;-68
2024/04/15 04:06:27;;;;;;;;;;;;;;;18.93;47.93;99341.28;11098170;26;958;-67
2024/04/15 04:11:22;;;;;;;;;;;;;;;18.92;47.90;99344.88;11099354;26;1070;-67
2024/04/15 04:16:18;;;;;;;;;;;;;;;18.92;47.59;99341.38;11099349;26;1159;-67
2024/04/15 04:21:14;;;;;;;;;;;;;;;18.92;47.59;99331.66;11099058;26;1852;-67
2024/04/15 04:26:10;;;;;;;;;;;;;;;18.94;47.71;99328.91;11099649;26;932;-67
2024/04/15 04:31:06;;;;;;;;;;;;;;;18.94;47.50;99329.78;11098785;26;1067;-67
2024/04/15 04:36:02;;;;;;;;;;;;;;;18.96;47.56;99316.50;11099293;26;815;-67
2024/04/15 04:40:58;;;;;;;;;;;;;;;18.97;47.77;99313.78;11098415;26;1851;-67
2024/04/15 04:45:54;;;;;;;;;;;;;;;18.99;47.67;99311.91;11098256;26;946;-67
2024/04/15 04:50:50;;;;;;;;;;;;;;;19.00;47.68;99308.31;11098099;26;885;-68
2024/04/15 04:55:45;;;;;;;;;;;;;;;19.01;47.52;99304.72;11097903;26;956;-68
2024/04/15 05:00:41;;;;;;;;;;;;;;;19.03;47.64;99302.88;11152587;26;1841;-67
2024/04/15 05:05:37;;;;;;;;;;;;;;;19.04;47.47;99299.28;11170860;26;843;-67
2024/04/15 05:10:33;;;;;;;;;;;;;;;19.05;47.57;99293.06;11167345;26;1326;-68
2024/04/15 05:15:29;;;;;;;;;;;;;;;19.07;47.73;99282.41;11171376;26;890;-68
2024/04/15 05:20:25;;;;;;;;;;;;;;;19.08;47.62;99276.19;11175789;26;1848;-68
2024/04/15 05:25:21;;;;;;;;;;;;;;;19.09;47.73;99269.13;11179312;26;889;-68
2024/04/15 05:30:17;;;;;;;;;;;;;;;19.12;47.64;99274.22;11178487;26;833;-68
2024/04/15 05:35:13;;;;;;;;;;;;;;;19.12;47.54;99255.72;11178289;26;918;-68
2024/04/15 05:40:09;;;;;;;;;;;;;;;19.13;47.65;99252.16;11178017;26;2134;-68
2024/04/15 05:45:05;;;;;;;;;;;;;;;19.14;47.69;99246.78;11178734;26;1011;-68
2024/04/15 05:50:00;;;;;;;;;;;;;;;19.14;47.70;99232.72;11177889;26;834;-68
2024/04/15 05:54:56;;;;;;;;;;;;;;;19.14;47.58;99224.81;11177645;26;1001;-68
2024/04/15 05:59:52;;;;;;;;;;;;;;;19.14;47.43;99216.88;11177228;26;1107;-68
2024/04/15 06:04:50;;;;;;;;;;;;;;;19.15;47.63;99215.94;11177359;26;1840;-71
2024/04/15 06:09:46;;;;;;;;;;;;;;;19.15;47.56;99215.94;11177246;26;954;-68
2024/04/15 06:14:42;;;;;;;;;;;;;;;19.15;47.39;99226.50;11177159;26;1334;-67
2024/04/15 06:19:38;;;;;;;;;;;;;;;19.15;47.28;99218.56;11177700;26;824;-68
2024/04/15 06:24:35;;;;;;;;;;;;;;;19.14;47.30;99223.00;11176832;26;1828;-68
2024/04/15 06:29:31;;;;;;;;;;;;;;;19.12;47.31;99214.31;11175585;26;892;-68
2024/04/15 06:34:29;;;;;;;;;;;;;;;19.12;47.38;99200.25;11176576;26;1050;-68
2024/04/15 06:39:25;;;;;;;;;;;;;;;19.11;47.33;99188.00;11177052;26;926;-67
2024/04/15 06:44:21;;;;;;;;;;;;;;;19.11;47.14;99172.16;11176208;26;1821;-68
2024/04/15 06:49:17;;;;;;;;;;;;;;;19.11;47.41;99174.78;11176753;26;810;-68
2024/04/15 06:54:13;;;;;;;;;;;;;;;19.10;47.13;99179.22;11176651;26;933;-68
2024/04/15 06:59:09;;;;;;;;;;;;;;;19.10;47.26;99170.44;11175635;26;1108;-67
2024/04/15 07:04:05;;;;;;;;;;;;;;;19.10;47.05;99159.88;11177035;26;1836;-68
2024/04/15 07:09:01;;;;;;;;;;;;;;;19.11;47.14;99151.00;11176905;26;877;-67
2024/04/15 07:13:56;;;;;;;;;;;;;;;19.12;47.20;99136.84;11176738;26;920;-67
2024/04/15 07:18:52;;;;;;;;;;;;;;;19.12;47.21;99134.22;11175992;26;1069;-67
2024/04/15 07:23:48;;;;;;;;;;;;;;;19.12;47.21;99126.28;11174649;26;1824;-67
2024/04/15 07:28:44;;;;;;;;;;;;;;;19.11;47.16;99109.59;11176342;26;833;-67
2024/04/15 07:33:40;;;;;;;;;;;;;;;19.12;47.10;99121.00;11176114;26;946;-67
2024/04/15 07:38:36;;;;;;;;;;;;;;;19.11;47.12;99116.69;11175972;26;994;-68
2024/04/15 07:43:32;;;;;;;;;;;;;;;19.13;47.25;99106.88;11175893;26;1830;-67
2024/04/15 07:48:27;;;;;;;;;;;;;;;19.15;46.89;99103.22;11175659;26;934;-68
2024/04/15 07:53:23;;;;;;;;;;;;;;;19.14;47.02;99109.41;11175546;26;764;-67
2024/04/15 07:58:20;;;;;;;;;;;;;;;19.15;47.00;99104.97;11174982;26;929;-69
2024/04/15 08:03:15;;;;;;;;;;;;;;;19.15;47.00;99099.69;11173707;26;1844;-70
2024/04/15 08:08:11;;;;;;;;;;;;;;;19.14;47.04;99074.22;11173759;26;953;-70
2024/04/15 08:13:07;;;;;;;;;;;;;;;19.12;46.90;99076.94;11174261;26;1021;-69
2024/04/15 08:18:03;;;;;;;;;;;;;;;19.13;46.82;99076.03;11173384;26;1086;-69
2024/04/15 08:22:59;;;;;;;;;;;;;;;19.15;46.93;99070.63;11173242;26;1832;-71
2024/04/15 08:27:56;;;;;;;;;;;;;;;19.13;46.84;99070.75;11173071;26;830;-71
2024/04/15 08:32:52;;;;;;;;;;;;;;;19.12;46.78;99050.53;11173644;26;870;-68
2024/04/15 08:37:48;;;;;;;;;;;;;;;19.15;46.74;99053.00;11173433;26;895;-68
2024/04/15 08:42:44;;;;;;;;;;;;;;;19.15;46.79;99044.22;11172373;26;1824;-68
2024/04/15 08:47:40;;;;;;;;;;;;;;;19.17;46.69;99029.13;11172358;26;859;-68
2024/04/15 08:52:37;;;;;;;;;;;;;;;19.16;46.87;99012.44;11171452;26;745;-67
2024/04/15 08:57:33;;;;;;;;;;;;;;;19.17;46.68;99003.56;11179442;26;872;-67
2024/04/15 09:02:31;;;;;;;;;;;;;;;19.17;46.74;98989.50;11178921;26;1836;-67
2024/04/15 09:07:26;;;;;;;;;;;;;;;19.17;46.63;98981.56;11179935;26;902;-67
2024/04/15 09:12:22;;;;;;;;;;;;;;;19.16;46.66;98975.44;11179767;26;829;-67
2024/04/15 09:17:19;;;;;;;;;;;;;;;19.17;46.66;98974.50;11179571;26;949;-67
2024/04/15 09:22:15;;;;;;;;;;;;;;;19.21;46.72;98959.31;11178724;26;1846;-67
2024/04/15 09:27:11;;;;;;;;;;;;;;;19.19;46.64;98954.13;11178598;26;905;-67
2024/04/15 09:32:07;;;;;;;;;;;;;;;19.19;46.57;98948.00;11178477;26;867;-67
2024/04/15 09:37:03;;;;;;;;;;;;;;;19.19;46.39;98938.25;11178268;26;1021;-67
2024/04/15 09:41:59;;;;;;;;;;;;;;;19.18;46.60;98915.44;11178149;26;1852;-67
2024/04/15 09:46:55;;;;;;;;;;;;;;;19.20;46.47;98912.69;11178706;26;887;-67
2024/04/15 09:51:51;;;;;;;;;;;;;;;19.20;46.40;98896.84;11177849;26;878;-67
2024/04/15 09:56:47;;;;;;;;;;;;;;;19.21;46.10;98888.00;11177644;26;871;-68
2024/04/15 10:01:43;;;;;;;;;;;;;;;19.20;46.33;98873.06;11178009;26;1832;-68
2024/04/15 10:06:38;;;;;;;;;;;;;;;19.19;46.40;98858.16;11176430;26;880;-68
2024/04/15 10:11:35;;;;;;;;;;;;;;;19.18;46.10;98851.19;11177886;26;858;-68
2024/04/15 10:16:30;;;;;;;;;;;;;;;19.17;46.11;98847.69;11177846;26;903;-72
2024/04/15 10:21:26;;;;;;;;;;;;;;;19.17;46.05;98828.34;11177645;26;1834;-68
2024/04/15 10:26:23;;;;;;;;;;;;;;;19.16;46.13;98827.50;11178188;26;958;-68
2024/04/15 10:31:20;;;;;;;;;;;;;;;19.15;46.23;98825.81;11177422;26;879;-67
2024/04/15 10:36:16;;;;;;;;;;;;;;;19.18;46.22;98808.94;11177229;26;869;-67
2024/04/15 10:41:12;;;;;;;;;;;;;;;19.18;45.96;98791.28;11177679;26;1838;-67
2024/04/15 10:46:08;;;;;;;;;;;;;;;19.20;45.94;98775.31;11177594;26;1021;-67
2024/04/15 10:51:04;;;;;;;;;;;;;;;19.22;45.65;98762.88;11176753;26;875;-67
2024/04/15 10:55:59;;;;;;;;;;;;;;;19.22;45.72;98736.44;11177269;26;966;-68
2024/04/15 11:00:55;;;;;;;;;;;;;;;19.24;45.58;98735.41;11176533;26;1858;-67
2024/04/15 11:05:51;;;;;;;;;;;;;;;19.24;45.63;98713.41;11177049;26;984;-67
2024/04/15 11:10:47;;;;;;;;;;;;;;;19.23;45.77;98698.50;11174820;26;796;-68
2024/04/15 11:15:43;;;;;;;;;;;;;;;19.25;45.47;98693.97;11175489;26;871;-68
2024/04/15 11:20:39;;;;;;;;;;;;;;;19.24;45.66;98679.91;11174564;26;1847;-67
2024/04/15 11:25:35;;;;;;;;;;;;;;;19.25;45.38;98667.56;11173039;26;855;-68
2024/04/15 11:30:31;;;;;;;;;;;;;;;19.26;45.41;98640.19;11174707;26;1071;-68
2024/04/15 11:35:26;;;;;;;;;;;;;;;19.23;45.22;98617.47;11174161;26;855;-68
2024/04/15 11:40:22;;;;;;;;;;;;;;;19.24;45.46;98597.19;11174314;26;1860;-68
2024/04/15 11:45:18;;;;;;;;;;;;;;;19.25;45.35;98593.59;11171952;26;791;-67
2024/04/15 11:50:14;;;;;;;;;;;;;;;19.24;45.55;98589.25;11174162;26;907;-69
2024/04/15 11:55:10;;;;;;;;;;;;;;;19.24;45.34;98581.34;11173281;26;891;-71
2024/04/15 12:00:06;;;;;;;;;;;;;;;19.25;45.54;98578.56;11173636;26;1227;-68
2024/04/15 12:05:02;;;;;;;;;;;;;;;19.26;45.52;98568.88;11173634;26;1840;-67
2024/04/15 12:09:59;;;;;;;;;;;;;;;19.28;45.52;98527.31;11173304;26;1071;-68
2024/04/15 12:14:54;;;;;;;;;;;;;;;19.30;45.36;98532.50;11172731;26;837;-67
2024/04/15 12:19:50;;;;;;;;;;;;;;;19.30;45.29;98516.66;11173168;26;918;-67
2024/04/15 12:24:46;;;;;;;;;;;;;;;19.31;45.44;98482.22;11172052;26;1845;-68
2024/04/15 12:29:42;;;;;;;;;;;;;;;19.35;45.00;98462.53;11171359;26;882;-68
2024/04/15 12:34:39;;;;;;;;;;;;;;;19.32;44.97;98462.75;11171988;26;1021;-67
2024/04/15 12:39:35;;;;;;;;;;;;;;;19.31;44.82;98445.22;11171943;26;845;-68
2024/04/15 12:44:31;;;;;;;;;;;;;;;19.31;45.17;98429.38;11171282;26;1829;-68
2024/04/15 12:49:27;;;;;;;;;;;;;;;19.30;45.16;98398.59;11171453;26;953;-67
2024/04/15 12:54:23;;;;;;;;;;;;;;;19.30;45.00;98389.84;11171115;26;1017;-67
2024/04/15 12:59:18;;;;;;;;;;;;;;;19.27;44.83;98383.81;11170948;26;1193;-67
2024/04/15 13:04:14;;;;;;;;;;;;;;;19.26;44.86;98374.22;11171077;26;1863;-67
2024/04/15 13:09:10;;;;;;;;;;;;;;;19.24;44.88;98343.59;11171436;26;990;-67
2024/04/15 13:14:06;;;;;;;;;;;;;;;19.22;44.83;98341.03;11171009;26;868;-68
2024/04/15 13:19:02;;;;;;;;;;;;;;;19.19;44.64;98328.06;11171204;26;1033;-68
2024/04/15 13:23:58;;;;;;;;;;;;;;;19.18;44.55;98329.03;11169698;26;1845;-67
2024/04/15 13:28:54;;;;;;;;;;;;;;;19.16;44.74;98325.63;11170077;26;906;-67
2024/04/15 13:33:51;;;;;;;;;;;;;;;19.15;44.70;98347.72;11169413;26;875;-68
2024/04/15 13:38:47;;;;;;;;;;;;;;;19.14;44.62;98339.91;11170553;26;820;-68
2024/04/15 13:43:43;;;;;;;;;;;;;;;19.14;44.23;98316.97;11177019;26;1839;-68
2024/04/15 13:48:39;;;;;;;;;;;;;;;19.14;44.51;98287.09;11176966;26;942;-68
2024/04/15 13:53:35;;;;;;;;;;;;;;;19.13;44.53;98264.28;11176767;26;933;-68
2024/04/15 13:58:31;;;;;;;;;;;;;;;19.13;44.57;98236.06;11176500;26;894;-68
2024/04/15 14:03:26;;;;;;;;;;;;;;;19.14;44.57;98231.63;11176778;26;1829;-68
2024/04/15 14:08:22;;;;;;;;;;;;;;;19.14;44.47;98223.69;11177071;26;953;-68
2024/04/15 14:13:18;;;;;;;;;;;;;;;19.14;44.44;98199.91;11176791;26;867;-68
2024/04/15 14:18:14;;;;;;;;;;;;;;;19.13;44.61;98171.84;11137486;26;2210;-67
2024/04/15 14:23:10;;;;;;;;;;;;;;;19.15;44.56;98154.94;11101985;26;1853;-67
2024/04/15 14:28:06;;;;;;;;;;;;;;;19.17;44.29;98125.75;11101940;26;875;-69
2024/04/15 14:33:02;;;;;;;;;;;;;;;19.24;44.67;98121.69;11101802;26;939;-67
2024/04/15 14:37:58;;;;;;;;;;;;;;;19.18;44.57;98130.09;11067518;26;2191;-67
2024/04/15 14:42:54;;;;;;;;;;;;;;;19.14;44.34;98128.63;11068595;26;1852;-66
2024/04/15 14:47:51;;;;;;;;;;;;;;;19.10;44.09;98145.63;11066637;26;959;-66
2024/04/15 14:52:46;;;;;;;;;;;;;;;19.08;44.24;98127.28;11027456;26;826;-68
2024/04/15 14:57:43;;;;;;;;;;;;;;;19.09;44.34;98096.41;11028383;26;1187;-70
2024/04/15 15:02:39;;;;;;;;;;;;;;;19.08;44.33;98079.75;11028387;26;1830;-68
2024/04/15 15:07:35;;;;;;;;;;;;;;;19.10;44.43;98069.03;11029390;26;806;-69
2024/04/15 15:12:31;;;;;;;;;;;;;;;19.08;44.55;98047.22;11028554;26;966;-68
2024/04/15 15:17:27;;;;;;;;;;;;;;;19.08;44.65;98052.50;11028388;26;884;-68
2024/04/15 15:22:23;;;;;;;;;;;;;;;19.08;44.67;98102.66;11028777;26;1850;-68
2024/04/15 15:27:19;;;;;;;;;;;;;;;19.08;44.62;98264.59;11028756;26;958;-68
2024/04/15 15:32:15;;;;;;;;;;;;;;;19.07;44.68;98257.63;11028054;26;872;-68
2024/04/15 15:37:10;;;;;;;;;;;;;;;19.08;44.70;98254.03;11027826;26;1426;-68
2024/04/15 15:42:06;;;;;;;;;;;;;;;19.09;44.69;98268.91;11028333;26;1822;-68
2024/04/15 15:47:02;;;;;;;;;;;;;;;19.09;44.88;98250.44;11028321;26;875;-68
2024/04/15 15:51:58;;;;;;;;;;;;;;;19.08;44.70;98269.03;11027366;26;902;-69
2024/04/15 15:56:53;;;;;;;;;;;19.90;47.80;;;19.08;44.99;98298.09;11027797;26;815;-68
2024/04/15 16:01:49;;;;;;;;;;;19.90;48.40;;;19.09;44.98;98331.47;11026445;26;1857;-68
2024/04/15 16:06:44;;;;;;;;;;;19.90;48.40;;;19.09;44.92;98303.25;11026350;26;835;-68
2024/04/15 16:11:40;;;;;;;;;;;19.90;48.50;;;19.10;44.94;98318.16;11027407;26;915;-68
2024/04/15 16:16:35;;;;;;;;;;;19.90;48.70;;;19.11;45.01;98267.00;11025921;26;863;-68
2024/04/15 16:21:31;;;;;;;;;;;19.80;48.50;;;19.11;44.76;98258.25;11025824;26;1861;-68
2024/04/15 16:26:26;;;;;;;;;;;19.90;48.10;;;19.13;45.07;98256.34;11026317;26;843;-69
2024/04/15 16:31:21;;;;;;;;;;;19.90;48.40;;;19.12;44.84;98310.09;11026148;26;853;-69
2024/04/15 16:36:17;;;;;;;;;;;19.90;48.30;;;19.12;44.69;98310.09;11025375;26;1575;-68
2024/04/15 16:41:12;;;;;;;;;;;19.90;48.00;;;19.10;44.82;98330.50;11025162;26;1850;-68
2024/04/15 16:46:08;;;;;;;;;;;19.90;48.00;;;19.12;44.90;98323.31;11025047;26;834;-68
2024/04/15 16:51:03;;;;;;;;;;;19.90;48.20;;;19.13;44.71;98293.31;11024864;26;1013;-68
2024/04/15 16:55:59;;;;;;;;;;;19.90;47.80;;;19.15;44.48;98275.53;11025263;26;962;-68
2024/04/15 17:00:54;;;;;;;;;;;19.90;47.70;;;19.14;44.54;98310.84;11024663;26;1833;-68
2024/04/15 17:05:49;;;;;;;;;;;19.90;47.90;;;19.13;44.63;98319.75;11024933;26;957;-68
2024/04/15 17:10:45;;;;;;;;;;;19.90;47.90;;;19.12;44.53;98304.81;11024676;26;870;-68
2024/04/15 17:15:41;;;;;;;;;;;19.90;47.60;;;19.12;44.19;98289.81;11028113;26;1185;-68
2024/04/15 17:20:37;;;;;;;;;;;19.90;47.50;;;19.12;44.54;98291.63;11031643;26;1916;-68
2024/04/15 17:25:32;;;;;;;;;;;19.90;47.60;;;19.10;44.49;98291.75;11031627;26;875;-68
2024/04/15 17:30:27;;;;;;;;;;;19.90;47.60;;;19.10;44.29;98299.66;11031426;26;898;-68
2024/04/15 17:35:23;;;;;;;;;;;19.90;47.40;;;19.10;44.34;98296.16;11031359;26;812;-68
2024/04/15 17:40:18;;;;;;;;;;;19.90;47.90;;;19.10;44.67;98314.66;11031127;26;1822;-68
2024/04/15 17:45:14;;;;;;;;;;;19.90;47.60;;;19.09;44.36;98303.25;11031068;26;929;-68
2024/04/15 17:50:09;;;;;;;;;;;19.90;47.50;;;19.09;44.17;98307.69;11030896;26;839;-69
2024/04/15 17:55:04;;;;;;;;;;;19.90;47.40;;;19.09;44.58;98297.13;11031320;26;903;-69
2024/04/15 18:00:00;;;;;;;;;;;19.90;47.50;;;19.08;44.24;98291.00;11030263;26;1188;-68
2024/04/15 18:04:55;;;;;;;;;;;19.90;47.50;;;19.08;44.11;98290.19;11030416;26;1842;-69
2024/04/15 18:09:50;;;;;;;;;;;19.90;47.20;;;19.06;44.28;98277.06;11059252;26;831;-68
2024/04/15 18:14:46;;;;;;;;;;;19.80;47.10;;;19.07;44.42;98283.19;11030909;26;897;-68
2024/04/15 18:19:41;;;;;;;;;;;19.90;47.40;;;19.07;44.16;98289.31;11030081;26;965;-68
2024/04/15 18:24:37;;;;;;;;;;;19.90;47.40;;;19.05;43.68;98283.31;11030304;26;1849;-68
2024/04/15 18:29:32;;;;;;;;;;;19.80;47.00;;;19.04;44.13;98300.94;11028707;26;967;-69
2024/04/15 18:34:27;;;;;;;;;;;19.80;47.20;;;19.04;44.45;98300.09;11029667;26;835;-68
2024/04/15 18:39:23;;;;;;;;;;;19.80;47.30;;;19.04;43.91;98294.81;11029508;26;836;-68
2024/04/15 18:44:18;;;;;;;;;;;19.80;46.90;;;19.01;43.63;98295.03;11029945;26;1833;-69
2024/04/15 18:49:14;;;;;;;;;;;19.80;46.70;;;19.00;43.79;98310.03;11029325;26;874;-68
2024/04/15 18:54:10;;;;;;;;;;;19.70;46.70;;;19.00;43.35;98328.53;11029071;26;827;-68
2024/04/15 18:59:05;;;;;;;;;;;19.80;46.60;;;19.00;43.79;98344.38;11028725;26;1066;-67
2024/04/15 19:04:01;;;;;;;;;;;19.80;46.80;;;19.01;43.93;98353.97;11028129;26;1829;-68
2024/04/15 19:08:56;;;;;;;;;;;19.80;46.90;;;19.02;43.98;98370.66;11028975;26;827;-68
2024/04/15 19:13:52;;;;;;;;;;;19.80;47.10;;;19.01;43.95;98376.91;11028500;26;951;-68
2024/04/15 19:18:47;;;;;;;;;;;19.80;47.10;;;19.00;44.14;98378.69;11028427;26;882;-67
2024/04/15 19:23:42;;;;;;;;;;;19.90;47.10;;;19.02;44.17;98400.56;11027613;26;1825;-67
2024/04/15 19:28:38;;;;;;;;;;;19.80;47.20;;;19.02;43.96;98403.22;11027491;26;868;-68
2024/04/15 19:33:33;;;;;;;;;;;19.80;47.20;;;19.02;44.26;98408.50;11028035;26;946;-67
2024/04/15 19:38:33;;;;;;;;;;;19.80;47.30;;;19.01;44.28;98411.22;11026697;26;861;-67
2024/04/15 19:43:28;;;;;;;;;;;19.80;47.10;;;19.00;43.94;98417.47;11027627;26;1852;-68
2024/04/15 19:48:25;;;;;;;;;;;19.80;47.00;;;18.99;44.07;98410.47;11027468;26;982;-67
2024/04/15 19:53:20;;;;;;;;;;;19.80;46.90;;;18.99;43.94;98403.44;11026787;26;883;-67
2024/04/15 19:58:16;;;;;;;;;;;19.80;46.80;;;18.98;43.58;98401.72;11027175;26;966;-67
2024/04/15 20:03:11;;;;;;;;;;;19.70;46.90;;;18.97;44.12;98394.75;11027180;26;1833;-67
2024/04/15 20:08:07;;;;;;;;;;;19.70;46.70;;;18.96;43.71;98421.25;11027493;26;1021;-68
2024/04/15 20:13:02;;;;;;;;;;;19.70;46.70;;;18.95;43.65;98423.06;11026788;26;802;-68
2024/04/15 20:18:20;;;;;;;;;;;19.70;46.70;;;18.95;43.64;98430.97;11026725;26;966;-68
2024/04/15 20:23:15;;;;;;;;;;;19.70;46.60;;;18.93;43.86;98427.59;11026517;26;1837;-67
2024/04/15 20:28:11;;;;;;;;;;;19.70;46.60;;;18.93;43.74;98424.94;11026256;26;823;-68
2024/04/15 20:33:06;;;;;;;;;;;19.70;46.80;;;18.92;43.76;98411.88;11026161;26;897;-67
2024/04/15 20:38:02;;;;;;;;;;;19.60;46.30;;;18.91;43.39;98411.00;11026426;26;818;-70
2024/04/15 20:42:57;;;;;;;;;;;19.60;46.50;;;18.90;43.78;98417.25;11026865;26;1851;-68
2024/04/15 20:47:52;;;;;;;;;;;19.60;46.60;;;18.90;43.79;98405.84;11026759;26;942;-67
2024/04/15 20:52:48;;;;;;;;;;;19.60;46.80;;;18.89;43.58;98410.28;11032433;26;868;-67
2024/04/15 20:57:43;;;;;;;;;;;19.60;46.80;;;18.87;43.82;98422.75;11033673;26;814;-67
2024/04/15 21:02:39;;;;;;;;;;;19.50;46.70;;;18.85;43.62;98403.53;11031869;26;1833;-67
2024/04/15 21:07:34;;;;;;;;;;;19.50;46.50;;;18.84;43.51;98430.88;11032759;26;881;-67
2024/04/15 21:12:30;;;;;;;;;;;19.60;46.30;;;18.82;43.48;98428.34;11032571;26;2248;-67
2024/04/15 21:17:25;;;;;;;;;;;19.50;46.20;;;18.81;43.42;98429.31;11032393;26;893;-67
2024/04/15 21:22:21;;;;;;;;;;;19.50;46.30;;;18.79;43.52;98430.34;11031562;26;1862;-67
2024/04/15 21:27:16;;;;;;;;;;;19.40;46.10;;;18.77;43.43;98426.97;11031493;26;900;-67
2024/04/15 21:32:11;;;;;;;;;;;19.40;46.20;;;18.76;43.22;98430.56;11032044;26;875;-67
2024/04/15 21:37:08;;;;;;;;;;;19.40;46.50;;;18.74;43.32;98404.22;11031756;26;841;-67
2024/04/15 21:42:03;;;;;;;;;;;19.30;46.40;;;18.73;43.55;98409.59;11031039;26;1833;-67
2024/04/15 21:46:59;;;;;;;;;;;19.30;46.40;;;18.72;43.23;98400.00;11030946;26;928;-67
2024/04/15 21:51:54;;;;;;;;;;;19.30;46.30;;;18.70;43.29;98409.81;11030734;26;1107;-67
2024/04/15 21:56:49;;;;;;;;;;;19.30;46.30;;;18.70;43.48;98407.19;11031210;26;859;-67
2024/04/15 22:01:45;;;;;;;;;;;19.30;46.30;;;18.67;43.46;98405.59;11030689;26;1848;-67
2024/04/15 22:06:40;;;;;;;;;;;19.30;46.10;;;18.66;43.20;98405.72;11030970;26;890;-67
2024/04/15 22:11:35;;;;;;;;;;;19.30;46.40;;;18.65;43.66;98407.47;11031499;26;904;-67
2024/04/15 22:16:31;;;;;;;;;;;19.30;46.90;;;18.64;43.40;98415.53;11030819;26;896;-67
2024/04/15 22:21:26;;;;;;;;;;;19.20;47.10;;;18.62;43.59;98403.25;11031214;26;1833;-67
2024/04/15 22:26:22;;;;;;;;;;;19.20;46.90;;;18.61;43.49;98412.13;11031149;26;905;-67
2024/04/15 22:31:17;;;;;;;;;;;19.20;46.90;;;18.60;43.69;98404.31;11031024;26;814;-67
2024/04/15 22:36:12;;;;;;;;;;;19.20;46.70;;;18.59;43.34;98416.66;11030134;26;1055;-67
2024/04/15 22:41:08;;;;;;;;;;;19.20;46.70;;;18.58;43.53;98407.06;11029961;26;1864;-67
2024/04/15 22:46:03;;;;;;;;;;;19.10;46.90;;;18.57;43.49;98397.44;11030042;26;968;-67
2024/04/15 22:50:58;;;;;;;;;;;19.10;46.90;;;18.55;43.77;98409.94;11029733;26;867;-67
2024/04/15 22:55:54;;;;;;;;;;;19.10;47.00;;;18.54;43.57;98397.66;11030384;26;920;-67
2024/04/15 23:06:04;;;;;;;;;;;19.10;46.60;;;18.52;43.53;98390.78;11028565;26;689;-67
2024/04/15 23:10:59;;;;;;;;;;;19.10;46.70;;;18.50;43.62;98388.28;11028759;26;875;-67
2024/04/15 23:15:55;;;;;;;;;;;19.10;47.10;;;18.49;43.61;98397.13;11028593;26;826;-67
2024/04/15 23:20:50;;;;;;;;;;;19.10;47.10;;;18.49;43.98;98393.66;11028872;26;1850;-67
2024/04/15 23:25:45;;;;;;;;;;;19.10;47.00;;;18.47;43.75;98384.97;11028853;26;814;-67
2024/04/15 23:30:41;;;;;;;;;;;19.10;46.80;;;18.45;43.43;98366.63;11027986;26;1138;-67
2024/04/15 23:35:36;;;;;;;;;;;19.00;46.50;;;18.44;43.69;98364.94;11028346;26;936;-67
2024/04/15 23:40:32;;;;;;;;;;;19.00;46.50;;;18.43;43.56;98359.78;11028336;26;1856;-67
2024/04/15 23:45:27;;;;;;;;;;;19.00;46.80;;;18.41;43.18;98344.03;11028141;26;976;-67
2024/04/15 23:50:23;;;;;;;;;;;19.00;46.70;;;18.40;43.51;98340.56;11028111;26;810;-67
2024/04/15 23:55:18;;;;;;;;;;;19.00;46.70;;;18.40;43.37;98340.56;11027957;26;946;-67
